createdAt,value
2022-11-30T00:01:11.628Z,92.59
2022-11-30T00:03:38.225Z,92.25
2022-11-30T00:06:06.860Z,92.32
2022-11-30T00:08:33.611Z,92.39
2022-11-30T00:10:59.978Z,92.43
2022-11-30T00:13:26.381Z,92.77
2022-11-30T00:15:52.788Z,92.44
2022-11-30T00:18:19.133Z,92.36
2022-11-30T00:20:45.535Z,92.68
2022-11-30T00:23:11.882Z,92.57
2022-11-30T00:25:38.282Z,92.31
2022-11-30T00:28:04.853Z,92.43
2022-11-30T00:30:31.255Z,92.96
2022-11-30T00:32:58.267Z,92.96
2022-11-30T00:35:24.775Z,92.81
2022-11-30T00:37:51.122Z,92.42
2022-11-30T00:40:17.498Z,92.64
2022-11-30T00:42:43.919Z,92.84
2022-11-30T00:45:10.604Z,92.79
2022-11-30T00:47:37.017Z,92.97
2022-11-30T00:50:06.177Z,93.27
2022-11-30T00:52:32.537Z,92.51
2022-11-30T00:55:01.708Z,92.75
2022-11-30T00:57:30.367Z,93.28
2022-11-30T00:59:56.725Z,92.64
2022-11-30T01:02:23.129Z,92.93
2022-11-30T01:04:49.653Z,92.88
2022-11-30T01:07:16.126Z,92.74
2022-11-30T01:09:42.479Z,92.78
2022-11-30T01:12:08.839Z,92.34
2022-11-30T01:14:35.255Z,92.87
2022-11-30T01:17:01.690Z,92.28
2022-11-30T01:19:28.181Z,92.66
2022-11-30T01:21:54.541Z,92.29
2022-11-30T01:24:20.936Z,92.27
2022-11-30T01:26:47.395Z,92.87
2022-11-30T01:29:13.765Z,92.69
2022-11-30T01:31:40.118Z,92.46
2022-11-30T01:34:06.518Z,92.41
2022-11-30T01:36:32.917Z,92.25
2022-11-30T01:38:59.324Z,92.43
2022-11-30T01:41:31.215Z,92.05
2022-11-30T01:44:07.079Z,92.02
2022-11-30T01:46:40.391Z,91.81
2022-11-30T01:49:24.934Z,91.97
2022-11-30T01:52:35.187Z,92.22
2022-11-30T01:55:20.448Z,92.16
2022-11-30T01:58:08.231Z,92.25
2022-11-30T02:00:35.045Z,91.67
2022-11-30T02:03:23.625Z,91.93
2022-11-30T02:05:50.055Z,91.78
2022-11-30T02:08:17.481Z,91.75
2022-11-30T02:10:48.399Z,91.73
2022-11-30T02:13:45.530Z,91.81
2022-11-30T02:16:33.889Z,91.46
2022-11-30T02:19:34.637Z,91.65
2022-11-30T02:22:20.700Z,91.47
2022-11-30T02:25:11.359Z,91.79
2022-11-30T02:27:44.048Z,91.11
2022-11-30T02:30:15.174Z,91.51
2022-11-30T02:32:54.091Z,91.47
2022-11-30T02:35:25.171Z,91.16
2022-11-30T02:37:54.355Z,91.37
2022-11-30T02:40:21.257Z,91.26
2022-11-30T02:42:50.391Z,91.25
2022-11-30T02:45:19.401Z,91.24
2022-11-30T02:47:53.091Z,91.52
2022-11-30T02:50:37.750Z,91.05
2022-11-30T02:53:04.556Z,91.41
2022-11-30T02:55:32.043Z,91.13
2022-11-30T02:57:58.382Z,91.15
2022-11-30T03:00:25.136Z,91.06
2022-11-30T03:02:51.580Z,91.35
2022-11-30T03:05:17.978Z,91.13
2022-11-30T03:07:44.445Z,91.21
2022-11-30T03:10:11.102Z,90.83
2022-11-30T03:12:37.965Z,90.96
2022-11-30T03:15:05.223Z,90.79
2022-11-30T03:17:31.619Z,91.15
2022-11-30T03:19:58.015Z,90.96
2022-11-30T03:22:24.495Z,91.23
2022-11-30T03:24:50.883Z,90.84
2022-11-30T03:27:17.344Z,91.01
2022-11-30T03:29:43.958Z,91.02
2022-11-30T03:32:10.337Z,91.11
2022-11-30T03:34:36.737Z,90.71
2022-11-30T03:37:03.235Z,90.51
2022-11-30T03:39:29.625Z,90.54
2022-11-30T03:41:56.091Z,90.81
2022-11-30T03:44:22.794Z,90.95
2022-11-30T03:46:49.186Z,90.80
2022-11-30T03:49:15.575Z,90.73
2022-11-30T03:51:41.967Z,90.48
2022-11-30T03:54:08.348Z,90.55
2022-11-30T03:56:34.689Z,90.41
2022-11-30T03:59:01.093Z,89.91
2022-11-30T04:01:28.064Z,89.97
2022-11-30T04:03:54.667Z,89.82
2022-11-30T04:06:21.759Z,89.83
2022-11-30T04:08:48.213Z,89.50
2022-11-30T04:11:15.414Z,89.63
2022-11-30T04:13:42.605Z,89.61
2022-11-30T04:16:09.832Z,89.38
2022-11-30T04:18:37.501Z,89.49
2022-11-30T04:21:05.621Z,89.00
2022-11-30T04:23:35.046Z,88.66
2022-11-30T04:26:06.679Z,88.79
2022-11-30T04:28:33.675Z,88.75
2022-11-30T04:31:00.880Z,88.43
2022-11-30T04:33:28.169Z,88.23
2022-11-30T04:35:56.828Z,88.35
2022-11-30T04:38:23.973Z,88.33
2022-11-30T04:40:50.575Z,88.36
2022-11-30T04:43:17.095Z,88.17
2022-11-30T04:45:45.093Z,88.41
2022-11-30T04:48:11.558Z,88.10
2022-11-30T04:50:39.278Z,88.11
2022-11-30T04:53:06.522Z,88.17
2022-11-30T04:55:33.383Z,88.44
2022-11-30T04:57:59.792Z,88.14
2022-11-30T05:00:26.176Z,88.03
2022-11-30T05:02:53.371Z,87.90
2022-11-30T05:05:20.376Z,87.39
2022-11-30T05:07:51.351Z,87.87
2022-11-30T05:10:17.992Z,87.59
2022-11-30T05:12:44.368Z,87.56
2022-11-30T05:15:10.934Z,87.45
2022-11-30T05:17:37.281Z,87.54
2022-11-30T05:20:04.082Z,87.51
2022-11-30T05:22:30.635Z,87.55
2022-11-30T05:24:57.049Z,87.57
2022-11-30T05:27:23.419Z,87.73
2022-11-30T05:29:49.771Z,87.53
2022-11-30T05:32:16.165Z,87.58
2022-11-30T05:34:50.618Z,87.62
2022-11-30T05:37:18.327Z,87.44
2022-11-30T05:39:44.730Z,87.43
2022-11-30T05:42:11.082Z,87.54
2022-11-30T05:44:37.570Z,87.67
2022-11-30T05:47:04.040Z,87.54
2022-11-30T05:49:30.465Z,86.94
2022-11-30T05:51:56.815Z,87.13
2022-11-30T05:54:23.182Z,87.33
2022-11-30T05:56:54.377Z,87.40
2022-11-30T05:59:21.286Z,87.34
2022-11-30T06:01:47.734Z,87.59
2022-11-30T06:04:14.259Z,87.78
2022-11-30T06:06:40.615Z,87.77
2022-11-30T06:09:06.972Z,87.75
2022-11-30T06:11:33.425Z,87.55
2022-11-30T06:13:59.785Z,87.78
2022-11-30T06:16:26.172Z,87.81
2022-11-30T06:18:52.734Z,87.98
2022-11-30T06:21:24.114Z,88.14
2022-11-30T06:23:51.704Z,87.72
2022-11-30T06:26:18.187Z,87.67
2022-11-30T06:28:48.172Z,87.68
2022-11-30T06:31:16.247Z,88.00
2022-11-30T06:33:43.255Z,88.18
2022-11-30T06:36:10.296Z,88.08
2022-11-30T06:38:36.828Z,88.14
2022-11-30T06:41:09.194Z,88.11
2022-11-30T06:43:37.072Z,88.17
2022-11-30T06:46:04.745Z,87.97
2022-11-30T06:48:31.268Z,88.19
2022-11-30T06:50:58.491Z,87.99
2022-11-30T06:53:25.246Z,88.38
2022-11-30T06:55:51.701Z,88.27
2022-11-30T06:58:18.091Z,88.19
2022-11-30T07:00:44.618Z,87.96
2022-11-30T07:03:11.938Z,88.15
2022-11-30T07:05:44.179Z,88.08
2022-11-30T07:08:11.980Z,88.38
2022-11-30T07:10:45.780Z,88.05
2022-11-30T07:13:14.405Z,88.12
2022-11-30T07:15:41.682Z,88.12
2022-11-30T07:18:09.027Z,88.06
2022-11-30T07:20:36.564Z,88.42
2022-11-30T07:23:23.066Z,88.00
2022-11-30T07:26:06.589Z,88.32
2022-11-30T07:28:41.853Z,87.93
2022-11-30T07:31:16.893Z,87.79
2022-11-30T07:33:43.757Z,88.08
2022-11-30T07:36:10.777Z,88.43
2022-11-30T07:38:38.092Z,88.38
2022-11-30T07:41:05.289Z,88.39
2022-11-30T07:43:32.527Z,88.47
2022-11-30T07:45:59.132Z,88.52
2022-11-30T07:48:25.710Z,87.96
2022-11-30T07:50:52.089Z,88.37
2022-11-30T07:53:18.605Z,88.67
2022-11-30T07:55:45.420Z,88.67
2022-11-30T07:58:17.123Z,88.62
2022-11-30T08:00:44.009Z,88.56
2022-11-30T08:03:10.585Z,88.62
2022-11-30T08:05:36.922Z,88.99
2022-11-30T08:08:03.347Z,88.93
2022-11-30T08:10:29.779Z,88.74
2022-11-30T08:12:56.138Z,88.70
2022-11-30T08:15:26.105Z,88.96
2022-11-30T08:18:05.038Z,88.84
2022-11-30T08:20:31.387Z,88.81
2022-11-30T08:22:58.819Z,88.61
2022-11-30T08:25:25.156Z,88.38
2022-11-30T08:27:51.494Z,88.27
2022-11-30T08:30:17.830Z,88.25
2022-11-30T08:32:44.245Z,88.83
2022-11-30T08:35:10.626Z,88.60
2022-11-30T08:37:37.812Z,88.46
2022-11-30T08:40:05.159Z,88.29
2022-11-30T08:42:31.733Z,88.35
2022-11-30T08:44:58.414Z,88.48
2022-11-30T08:47:25.243Z,88.31
2022-11-30T08:49:51.664Z,88.17
2022-11-30T08:52:18.820Z,88.04
2022-11-30T08:54:47.566Z,87.97
2022-11-30T08:57:19.860Z,87.99
2022-11-30T08:59:46.865Z,88.16
2022-11-30T09:02:18.741Z,88.16
2022-11-30T09:04:48.625Z,88.37
2022-11-30T09:07:14.999Z,88.39
2022-11-30T09:09:41.382Z,88.27
2022-11-30T09:12:07.962Z,88.17
2022-11-30T09:14:34.358Z,88.48
2022-11-30T09:17:00.765Z,88.13
2022-11-30T09:19:27.202Z,88.28
2022-11-30T09:21:54.312Z,88.56
2022-11-30T09:24:21.008Z,87.81
2022-11-30T09:26:47.719Z,88.27
2022-11-30T09:29:14.101Z,88.02
2022-11-30T09:31:40.485Z,87.87
2022-11-30T09:34:06.878Z,87.95
2022-11-30T09:36:33.881Z,88.00
2022-11-30T09:39:00.230Z,87.77
2022-11-30T09:41:47.735Z,88.00
2022-11-30T09:44:46.463Z,87.87
2022-11-30T09:47:18.738Z,87.97
2022-11-30T09:49:46.928Z,87.51
2022-11-30T09:52:26.607Z,88.03
2022-11-30T09:54:53.457Z,87.94
2022-11-30T09:57:45.449Z,87.61
2022-11-30T10:00:18.884Z,87.73
2022-11-30T10:02:45.780Z,87.48
2022-11-30T10:05:23.389Z,87.36
2022-11-30T10:08:16.720Z,87.43
2022-11-30T10:10:56.647Z,87.63
2022-11-30T10:13:50.112Z,87.48
2022-11-30T10:16:35.109Z,87.07
2022-11-30T10:19:19.624Z,87.37
2022-11-30T10:22:02.735Z,86.96
2022-11-30T10:24:37.446Z,86.53
2022-11-30T10:27:17.617Z,87.14
2022-11-30T10:29:44.623Z,86.96
2022-11-30T10:32:29.122Z,86.64
2022-11-30T10:35:01.699Z,87.00
2022-11-30T10:37:37.201Z,86.55
2022-11-30T10:40:14.763Z,86.63
2022-11-30T10:42:46.694Z,86.39
2022-11-30T10:45:22.091Z,86.65
2022-11-30T10:48:15.254Z,86.57
2022-11-30T10:50:42.060Z,86.38
2022-11-30T10:53:12.731Z,86.31
2022-11-30T10:55:43.381Z,85.95
2022-11-30T10:58:33.946Z,86.19
2022-11-30T11:01:06.760Z,86.22
2022-11-30T11:03:34.153Z,86.28
2022-11-30T11:06:23.577Z,86.40
2022-11-30T11:08:50.402Z,86.31
2022-11-30T11:11:29.436Z,86.30
2022-11-30T11:14:13.819Z,86.45
2022-11-30T11:17:04.014Z,86.27
2022-11-30T11:19:39.860Z,86.48
2022-11-30T11:22:27.408Z,86.43
2022-11-30T11:25:08.021Z,86.29
2022-11-30T11:27:37.470Z,86.04
2022-11-30T11:30:27.231Z,86.30
2022-11-30T11:33:02.615Z,85.47
2022-11-30T11:35:39.725Z,84.83
2022-11-30T11:38:30.496Z,85.45
2022-11-30T11:41:12.961Z,85.30
2022-11-30T11:44:21.147Z,85.57
2022-11-30T11:46:57.340Z,85.18
2022-11-30T11:49:27.397Z,85.04
2022-11-30T11:52:15.529Z,85.06
2022-11-30T11:54:58.734Z,85.22
2022-11-30T11:57:41.451Z,85.25
2022-11-30T12:00:16.438Z,85.23
2022-11-30T12:03:08.501Z,85.45
2022-11-30T12:05:46.989Z,84.86
2022-11-30T12:08:19.710Z,85.09
2022-11-30T12:11:01.877Z,85.12
2022-11-30T12:13:43.064Z,84.83
2022-11-30T12:16:14.365Z,85.10
2022-11-30T12:19:17.577Z,84.95
2022-11-30T12:22:05.768Z,84.88
2022-11-30T12:24:38.270Z,84.63
2022-11-30T12:27:23.440Z,84.78
2022-11-30T12:30:09.861Z,84.54
2022-11-30T12:33:10.550Z,84.17
2022-11-30T12:35:54.546Z,84.41
2022-11-30T12:38:31.861Z,84.70
2022-11-30T12:41:07.246Z,84.65
2022-11-30T12:43:56.590Z,84.79
2022-11-30T12:46:31.043Z,84.74
2022-11-30T12:49:16.144Z,84.33
2022-11-30T12:52:09.715Z,84.54
2022-11-30T12:54:58.130Z,84.67
2022-11-30T12:57:38.106Z,84.65
2022-11-30T13:00:23.983Z,84.80
2022-11-30T13:02:58.856Z,84.85
2022-11-30T13:05:43.933Z,84.95
2022-11-30T13:08:13.104Z,84.16
2022-11-30T13:10:48.812Z,84.40
2022-11-30T13:13:26.221Z,84.27
2022-11-30T13:15:53.327Z,84.60
2022-11-30T13:18:23.119Z,84.56
2022-11-30T13:20:55.585Z,84.13
2022-11-30T13:23:32.501Z,84.05
2022-11-30T13:26:15.562Z,84.22
2022-11-30T13:28:56.707Z,84.50
2022-11-30T13:31:33.906Z,84.79
2022-11-30T13:34:00.765Z,84.92
2022-11-30T13:36:42.273Z,84.75
2022-11-30T13:39:14.823Z,84.92
2022-11-30T13:41:43.608Z,84.48
2022-11-30T13:44:39.786Z,84.74
2022-11-30T13:47:18.203Z,84.15
2022-11-30T13:49:45.313Z,84.80
2022-11-30T13:52:22.496Z,84.20
2022-11-30T13:54:51.413Z,84.23
2022-11-30T13:57:27.215Z,84.54
2022-11-30T14:00:31.562Z,84.55
2022-11-30T14:03:20.056Z,84.49
2022-11-30T14:05:48.007Z,84.08
2022-11-30T14:08:23.476Z,84.54
2022-11-30T14:10:55.420Z,84.69
2022-11-30T14:13:30.881Z,84.63
2022-11-30T14:16:01.746Z,84.48
2022-11-30T14:18:38.492Z,84.70
2022-11-30T14:21:44.085Z,85.05
2022-11-30T14:24:21.591Z,84.85
2022-11-30T14:26:50.998Z,85.16
2022-11-30T14:29:21.875Z,85.12
2022-11-30T14:31:48.261Z,84.88
2022-11-30T14:34:19.646Z,84.80
2022-11-30T14:36:55.425Z,84.91
2022-11-30T14:39:25.576Z,84.76
2022-11-30T14:41:52.097Z,84.80
2022-11-30T14:44:18.669Z,84.18
2022-11-30T14:46:45.211Z,84.74
2022-11-30T14:49:18.755Z,84.52
2022-11-30T14:51:54.911Z,84.42
2022-11-30T14:54:36.449Z,84.34
2022-11-30T14:57:14.682Z,84.57
2022-11-30T14:59:53.732Z,84.62
2022-11-30T15:02:29.725Z,84.98
2022-11-30T15:04:58.244Z,85.05
2022-11-30T15:07:25.837Z,85.23
2022-11-30T15:10:01.535Z,85.01
2022-11-30T15:12:28.062Z,84.68
2022-11-30T15:15:27.815Z,84.55
2022-11-30T15:18:18.426Z,84.96
2022-11-30T15:21:02.467Z,85.00
2022-11-30T15:23:29.002Z,85.29
2022-11-30T15:26:00.912Z,85.35
2022-11-30T15:28:33.707Z,85.40
2022-11-30T15:31:04.310Z,85.00
2022-11-30T15:33:41.312Z,85.33
2022-11-30T15:36:32.888Z,85.60
2022-11-30T15:38:55.155Z,85.63
2022-11-30T15:41:24.465Z,85.41
2022-11-30T15:43:54.057Z,85.59
2022-11-30T15:46:31.625Z,85.65
2022-11-30T15:49:25.831Z,85.83
2022-11-30T15:52:15.624Z,85.86
2022-11-30T15:55:03.626Z,85.86
2022-11-30T15:58:12.677Z,85.95
2022-11-30T16:00:39.842Z,86.19
2022-11-30T16:03:11.472Z,86.06
2022-11-30T16:05:39.839Z,85.90
2022-11-30T16:08:16.402Z,85.96
2022-11-30T16:10:43.654Z,86.36
2022-11-30T16:13:14.878Z,86.05
2022-11-30T16:15:46.686Z,86.15
2022-11-30T16:18:24.477Z,86.19
2022-11-30T16:20:57.277Z,86.03
2022-11-30T16:23:23.666Z,86.29
2022-11-30T16:25:50.409Z,86.30
2022-11-30T16:28:18.421Z,86.44
2022-11-30T16:30:45.750Z,86.51
2022-11-30T16:33:15.518Z,86.85
2022-11-30T16:36:09.158Z,86.87
2022-11-30T16:38:35.534Z,86.33
2022-11-30T16:41:14.124Z,86.53
2022-11-30T16:43:40.899Z,86.55
2022-11-30T16:46:10.961Z,86.92
2022-11-30T16:48:37.503Z,86.52
2022-11-30T16:51:03.920Z,86.96
2022-11-30T16:53:30.287Z,86.78
2022-11-30T16:55:56.633Z,86.71
2022-11-30T16:58:23.197Z,86.99
2022-11-30T17:00:49.718Z,87.00
2022-11-30T17:03:28.146Z,87.28
2022-11-30T17:05:54.635Z,87.15
2022-11-30T17:08:20.991Z,87.33
2022-11-30T17:10:51.698Z,87.13
2022-11-30T17:13:18.240Z,87.35
2022-11-30T17:15:45.232Z,87.42
2022-11-30T17:18:11.732Z,87.37
2022-11-30T17:20:38.825Z,87.24
2022-11-30T17:23:06.255Z,87.05
2022-11-30T17:25:32.876Z,87.46
2022-11-30T17:28:00.049Z,87.38
2022-11-30T17:30:27.738Z,87.40
2022-11-30T17:32:54.224Z,87.50
2022-11-30T17:35:20.577Z,87.40
2022-11-30T17:37:46.959Z,87.60
2022-11-30T17:40:15.262Z,87.45
2022-11-30T17:42:42.187Z,87.40
2022-11-30T17:45:09.110Z,87.42
2022-11-30T17:47:35.807Z,87.53
2022-11-30T17:50:02.348Z,87.37
2022-11-30T17:52:28.739Z,87.05
2022-11-30T17:54:55.307Z,87.24
2022-11-30T17:57:21.725Z,87.38
2022-11-30T17:59:48.050Z,87.40
2022-11-30T18:02:14.458Z,87.22
2022-11-30T18:04:40.822Z,87.45
2022-11-30T18:07:07.179Z,87.67
2022-11-30T18:09:37.810Z,87.22
2022-11-30T18:12:07.476Z,87.38
2022-11-30T18:14:33.891Z,87.07
2022-11-30T18:17:00.276Z,87.36
2022-11-30T18:19:26.844Z,87.50
2022-11-30T18:21:53.253Z,87.35
2022-11-30T18:24:23.926Z,87.21
2022-11-30T18:26:52.566Z,87.33
2022-11-30T18:29:19.086Z,87.06
2022-11-30T18:31:48.083Z,87.30
2022-11-30T18:34:14.749Z,87.21
2022-11-30T18:36:41.101Z,86.98
2022-11-30T18:39:07.471Z,87.09
2022-11-30T18:41:33.894Z,86.84
2022-11-30T18:44:00.264Z,87.41
2022-11-30T18:46:27.329Z,87.54
2022-11-30T18:48:54.460Z,87.26
2022-11-30T18:51:24.212Z,87.53
2022-11-30T18:53:57.526Z,87.35
2022-11-30T18:56:27.808Z,87.59
2022-11-30T18:58:56.615Z,87.60
2022-11-30T19:01:23.823Z,87.51
2022-11-30T19:03:55.654Z,87.52
2022-11-30T19:06:24.644Z,87.28
2022-11-30T19:08:51.352Z,87.63
2022-11-30T19:11:17.777Z,87.79
2022-11-30T19:13:44.733Z,87.85
2022-11-30T19:16:15.133Z,87.70
2022-11-30T19:18:41.539Z,87.65
2022-11-30T19:21:10.106Z,87.73
2022-11-30T19:23:37.827Z,87.79
2022-11-30T19:26:05.234Z,87.50
2022-11-30T19:28:33.325Z,87.74
2022-11-30T19:31:00.271Z,87.85
2022-11-30T19:33:27.622Z,88.11
2022-11-30T19:36:04.931Z,88.12
2022-11-30T19:38:31.329Z,87.99
2022-11-30T19:40:57.683Z,88.24
2022-11-30T19:43:24.143Z,88.23
2022-11-30T19:45:50.843Z,87.87
2022-11-30T19:48:17.418Z,87.77
2022-11-30T19:50:43.792Z,88.14
2022-11-30T19:53:10.397Z,87.93
2022-11-30T19:55:40.304Z,88.09
2022-11-30T19:58:06.709Z,88.03
2022-11-30T20:00:33.057Z,88.16
2022-11-30T20:03:00.177Z,88.09
2022-11-30T20:05:26.592Z,87.82
2022-11-30T20:07:54.208Z,88.26
2022-11-30T20:10:20.821Z,88.03
2022-11-30T20:12:50.943Z,88.23
2022-11-30T20:15:17.321Z,88.18
2022-11-30T20:17:43.714Z,88.14
2022-11-30T20:20:11.702Z,88.14
2022-11-30T20:22:38.109Z,88.05
2022-11-30T20:25:04.849Z,88.20
2022-11-30T20:27:31.247Z,88.18
2022-11-30T20:29:57.579Z,87.84
2022-11-30T20:32:24.250Z,87.63
2022-11-30T20:34:50.873Z,87.65
2022-11-30T20:37:17.937Z,87.31
2022-11-30T20:39:46.259Z,87.19
2022-11-30T20:42:12.927Z,87.26
2022-11-30T20:44:39.277Z,87.17
2022-11-30T20:47:05.640Z,87.01
2022-11-30T20:49:32.003Z,87.13
2022-11-30T20:51:58.430Z,87.08
2022-11-30T20:54:24.814Z,87.22
2022-11-30T20:56:51.605Z,87.27
2022-11-30T20:59:23.474Z,86.99
2022-11-30T21:01:50.008Z,87.06
2022-11-30T21:04:16.453Z,86.98
2022-11-30T21:06:45.267Z,86.72
2022-11-30T21:09:15.685Z,86.92
2022-11-30T21:11:43.069Z,87.22
2022-11-30T21:14:10.450Z,87.16
2022-11-30T21:16:37.204Z,86.84
2022-11-30T21:19:04.137Z,87.25
2022-11-30T21:21:32.863Z,87.35
2022-11-30T21:24:01.363Z,87.29
2022-11-30T21:26:33.581Z,87.10
2022-11-30T21:29:03.254Z,87.50
2022-11-30T21:31:30.269Z,87.27
2022-11-30T21:33:56.886Z,87.22
2022-11-30T21:36:23.436Z,87.33
2022-11-30T21:38:58.296Z,86.97
2022-11-30T21:41:29.688Z,87.47
2022-11-30T21:43:56.521Z,87.30
2022-11-30T21:46:22.999Z,87.50
2022-11-30T21:48:50.620Z,87.59
2022-11-30T21:51:25.876Z,87.59
2022-11-30T21:53:54.470Z,87.04
2022-11-30T21:56:25.960Z,87.61
2022-11-30T21:58:53.249Z,87.36
2022-11-30T22:01:40.385Z,87.33
2022-11-30T22:04:08.155Z,88.06
2022-11-30T22:06:37.347Z,87.68
2022-11-30T22:09:09.421Z,87.94
2022-11-30T22:11:38.902Z,87.91
2022-11-30T22:14:06.757Z,88.20
2022-11-30T22:16:36.517Z,87.95
2022-11-30T22:19:04.514Z,87.89
2022-11-30T22:21:31.728Z,88.04
2022-11-30T22:24:07.519Z,88.03
2022-11-30T22:26:39.136Z,88.06
2022-11-30T22:29:08.090Z,88.27
2022-11-30T22:31:38.016Z,88.19
2022-11-30T22:34:05.453Z,87.98
2022-11-30T22:36:33.928Z,88.13
2022-11-30T22:39:21.509Z,87.96
2022-11-30T22:41:54.621Z,88.17
2022-11-30T22:44:21.920Z,88.23
2022-11-30T22:46:48.549Z,88.28
2022-11-30T22:49:20.700Z,88.42
2022-11-30T22:51:48.169Z,88.80
2022-11-30T22:54:14.546Z,88.52
2022-11-30T22:56:41.616Z,88.55
2022-11-30T22:59:10.814Z,88.47
2022-11-30T23:01:43.530Z,88.86
2022-11-30T23:04:13.227Z,88.78
2022-11-30T23:06:40.727Z,88.86
2022-11-30T23:09:12.078Z,89.25
2022-11-30T23:11:38.661Z,89.50
2022-11-30T23:14:07.901Z,89.57
2022-11-30T23:16:36.278Z,89.31
2022-11-30T23:19:02.921Z,89.16
2022-11-30T23:21:34.779Z,89.32
2022-11-30T23:24:07.740Z,89.49
2022-11-30T23:26:36.552Z,89.19
2022-11-30T23:29:08.158Z,89.06
2022-11-30T23:31:37.664Z,89.48
2022-11-30T23:34:06.358Z,89.76
2022-11-30T23:36:34.112Z,89.80
2022-11-30T23:39:04.003Z,89.85
2022-11-30T23:41:30.554Z,89.70
2022-11-30T23:43:56.956Z,89.70
2022-11-30T23:46:23.724Z,89.53
2022-11-30T23:48:50.160Z,89.67
2022-11-30T23:51:16.535Z,89.41
2022-11-30T23:53:43.308Z,89.65
2022-11-30T23:56:14.364Z,89.58
2022-11-30T23:58:41.076Z,89.58
